createdAt,value
2023-05-16T00:00:45.552Z,3.94
2023-05-16T00:01:45.526Z,3.68
2023-05-16T00:02:45.582Z,3.50
2023-05-16T00:03:45.521Z,4.22
2023-05-16T00:04:45.382Z,5.19
2023-05-16T00:05:45.400Z,4.22
2023-05-16T00:06:45.266Z,3.06
2023-05-16T00:07:45.234Z,3.01
2023-05-16T00:08:45.197Z,2.86
2023-05-16T00:09:45.861Z,2.70
2023-05-16T00:10:45.145Z,3.10
2023-05-16T00:11:45.198Z,3.06
2023-05-16T00:12:45.077Z,2.57
2023-05-16T00:13:45.090Z,2.38
2023-05-16T00:14:45.045Z,3.03
2023-05-16T00:15:45.063Z,2.96
2023-05-16T00:16:44.980Z,3.14
2023-05-16T00:17:44.942Z,2.79
2023-05-16T00:18:44.921Z,3.26
2023-05-16T00:19:44.852Z,3.31
2023-05-16T00:20:44.877Z,3.16
2023-05-16T00:21:45.355Z,3.05
2023-05-16T00:22:44.713Z,3.33
2023-05-16T00:23:44.736Z,3.67
2023-05-16T00:24:44.647Z,3.44
2023-05-16T00:25:44.636Z,3.24
2023-05-16T00:26:44.591Z,3.51
2023-05-16T00:27:44.555Z,3.00
2023-05-16T00:28:44.542Z,2.57
2023-05-16T00:29:44.587Z,3.25
2023-05-16T00:30:44.666Z,2.87
2023-05-16T00:31:44.749Z,3.28
2023-05-16T00:32:44.649Z,3.04
2023-05-16T00:33:44.601Z,3.46
2023-05-16T00:34:46.601Z,3.46
2023-05-16T00:35:44.694Z,3.32
2023-05-16T00:36:44.666Z,3.19
2023-05-16T00:37:45.356Z,4.25
2023-05-16T00:38:44.703Z,3.33
2023-05-16T00:39:44.709Z,3.50
2023-05-16T00:40:44.787Z,3.01
2023-05-16T00:41:44.734Z,3.34
2023-05-16T00:42:44.733Z,3.10
2023-05-16T00:43:44.679Z,3.20
2023-05-16T00:44:44.686Z,3.11
2023-05-16T00:45:44.696Z,3.35
2023-05-16T00:46:44.636Z,2.58
2023-05-16T00:47:44.675Z,3.00
2023-05-16T00:48:44.624Z,3.63
2023-05-16T00:49:44.666Z,3.85
2023-05-16T00:50:44.677Z,3.09
2023-05-16T00:51:44.698Z,2.99
2023-05-16T00:52:44.700Z,2.93
2023-05-16T00:53:44.739Z,3.62
2023-05-16T00:54:44.725Z,2.80
2023-05-16T00:55:44.716Z,2.89
2023-05-16T00:56:44.735Z,3.13
2023-05-16T00:57:44.717Z,3.44
2023-05-16T00:58:44.701Z,3.00
2023-05-16T00:59:44.683Z,2.98
2023-05-16T01:00:46.543Z,3.46
2023-05-16T01:01:44.695Z,2.96
2023-05-16T01:02:44.726Z,3.62
2023-05-16T01:03:44.651Z,3.05
2023-05-16T01:04:44.505Z,2.92
2023-05-16T01:05:44.562Z,2.85
2023-05-16T01:06:44.439Z,3.30
2023-05-16T01:07:44.401Z,3.23
2023-05-16T01:08:44.414Z,3.27
2023-05-16T01:09:44.331Z,3.57
2023-05-16T01:10:44.281Z,3.14
2023-05-16T01:11:44.251Z,2.94
2023-05-16T01:12:44.213Z,3.13
2023-05-16T01:13:44.179Z,3.17
2023-05-16T01:14:44.137Z,3.51
2023-05-16T01:15:44.160Z,3.20
2023-05-16T01:16:44.050Z,3.11
2023-05-16T01:17:44.044Z,2.98
2023-05-16T01:18:44.031Z,2.93
2023-05-16T01:19:44.093Z,2.99
2023-05-16T01:20:44.024Z,3.13
2023-05-16T01:21:44.036Z,3.57
2023-05-16T01:22:44.045Z,3.56
2023-05-16T01:23:44.087Z,3.70
2023-05-16T01:24:44.059Z,3.18
2023-05-16T01:25:44.094Z,3.42
2023-05-16T01:26:44.102Z,3.52
2023-05-16T01:27:44.061Z,3.02
2023-05-16T01:28:44.075Z,3.12
2023-05-16T01:29:44.033Z,3.53
2023-05-16T01:30:44.046Z,3.41
2023-05-16T01:31:44.102Z,3.43
2023-05-16T01:32:44.235Z,3.23
2023-05-16T01:33:44.038Z,3.72
2023-05-16T01:34:44.176Z,3.33
2023-05-16T01:35:44.094Z,4.11
2023-05-16T01:36:44.043Z,3.53
2023-05-16T01:37:44.135Z,3.43
2023-05-16T01:38:43.986Z,3.72
2023-05-16T01:39:44.012Z,3.24
2023-05-16T01:40:44.030Z,3.60
2023-05-16T01:41:43.990Z,3.07
2023-05-16T01:42:43.965Z,2.96
2023-05-16T01:43:43.912Z,3.34
2023-05-16T01:44:43.888Z,4.02
2023-05-16T01:45:43.861Z,3.55
2023-05-16T01:46:44.451Z,3.80
2023-05-16T01:47:43.809Z,3.80
2023-05-16T01:48:43.728Z,2.94
2023-05-16T01:49:43.678Z,3.05
2023-05-16T01:50:43.702Z,3.31
2023-05-16T01:51:43.596Z,3.46
2023-05-16T01:52:43.567Z,4.03
2023-05-16T01:53:43.533Z,3.35
2023-05-16T01:54:43.513Z,3.94
2023-05-16T01:55:43.551Z,3.40
2023-05-16T01:56:43.567Z,3.67
2023-05-16T01:57:43.596Z,3.22
2023-05-16T01:58:43.653Z,3.36
2023-05-16T01:59:43.534Z,4.23
2023-05-16T02:00:43.598Z,3.90
2023-05-16T02:01:43.717Z,4.21
2023-05-16T02:02:43.656Z,3.62
2023-05-16T02:03:43.633Z,3.96
2023-05-16T02:04:43.619Z,4.10
2023-05-16T02:05:43.647Z,3.49
2023-05-16T02:06:43.682Z,4.13
2023-05-16T02:07:43.733Z,3.25
2023-05-16T02:08:43.748Z,4.47
2023-05-16T02:09:43.730Z,4.45
2023-05-16T02:10:43.759Z,3.93
2023-05-16T02:11:43.778Z,4.59
2023-05-16T02:12:43.812Z,4.00
2023-05-16T02:13:43.819Z,4.44
2023-05-16T02:14:43.833Z,4.71
2023-05-16T02:15:43.907Z,3.63
2023-05-16T02:16:43.915Z,4.16
2023-05-16T02:17:43.938Z,4.16
2023-05-16T02:18:44.022Z,4.67
2023-05-16T02:19:43.973Z,4.13
2023-05-16T02:20:43.986Z,3.95
2023-05-16T02:21:44.000Z,3.86
2023-05-16T02:22:44.015Z,4.50
2023-05-16T02:23:44.007Z,5.42
2023-05-16T02:24:44.039Z,4.97
2023-05-16T02:25:44.043Z,5.09
2023-05-16T02:26:44.056Z,5.22
2023-05-16T02:27:44.075Z,5.06
2023-05-16T02:28:44.127Z,4.57
2023-05-16T02:29:44.105Z,4.43
2023-05-16T02:30:44.105Z,7.15
2023-05-16T02:31:44.119Z,9.90
2023-05-16T02:32:44.143Z,8.64
2023-05-16T02:33:44.175Z,5.05
2023-05-16T02:34:44.157Z,5.10
2023-05-16T02:35:44.182Z,5.63
2023-05-16T02:36:44.161Z,4.84
2023-05-16T02:37:44.185Z,4.85
2023-05-16T02:38:44.232Z,4.64
2023-05-16T02:39:44.192Z,4.48
2023-05-16T02:40:44.230Z,4.31
2023-05-16T02:41:44.235Z,4.71
2023-05-16T02:42:44.280Z,4.08
2023-05-16T02:43:46.248Z,5.10
2023-05-16T02:44:44.529Z,5.59
2023-05-16T02:45:44.567Z,5.03
2023-05-16T02:46:45.452Z,4.38
2023-05-16T02:47:44.530Z,4.34
2023-05-16T02:48:44.522Z,4.72
2023-05-16T02:49:44.590Z,4.63
2023-05-16T02:50:44.575Z,5.26
2023-05-16T02:51:44.594Z,5.16
2023-05-16T02:52:44.619Z,5.64
2023-05-16T02:53:44.588Z,4.82
2023-05-16T02:54:45.389Z,5.35
2023-05-16T02:57:08.303Z,5.54
2023-05-16T02:58:04.552Z,5.61
2023-05-16T02:59:04.566Z,5.41
2023-05-16T03:00:04.619Z,5.16
2023-05-16T03:01:04.620Z,5.14
2023-05-16T03:02:04.778Z,5.22
2023-05-16T03:03:04.766Z,5.36
2023-05-16T03:04:04.815Z,5.51
2023-05-16T03:05:04.718Z,5.59
2023-05-16T03:06:04.759Z,5.96
2023-05-16T03:07:04.769Z,5.65
2023-05-16T03:08:04.796Z,6.10
2023-05-16T03:09:04.809Z,5.99
2023-05-16T03:10:04.921Z,6.08
2023-05-16T03:11:04.908Z,6.71
2023-05-16T03:12:06.001Z,6.51
2023-05-16T03:13:04.947Z,6.68
2023-05-16T03:14:04.983Z,5.97
2023-05-16T03:15:05.000Z,6.18
2023-05-16T03:16:05.113Z,5.90
2023-05-16T03:17:05.058Z,5.85
2023-05-16T03:18:05.139Z,5.40
2023-05-16T03:19:05.191Z,5.96
2023-05-16T03:20:05.180Z,6.18
2023-05-16T03:21:05.234Z,7.58
2023-05-16T03:22:05.304Z,5.92
2023-05-16T03:23:05.376Z,6.51
2023-05-16T03:24:05.508Z,6.43
2023-05-16T03:25:05.535Z,5.95
2023-05-16T03:26:05.607Z,6.05
2023-05-16T03:27:05.665Z,6.53
2023-05-16T03:28:05.730Z,6.57
2023-05-16T03:29:05.800Z,6.21
2023-05-16T03:30:05.871Z,7.03
2023-05-16T03:31:06.007Z,6.56
2023-05-16T03:32:06.313Z,5.96
2023-05-16T03:33:06.141Z,6.90
2023-05-16T03:34:06.195Z,6.40
2023-05-16T03:35:06.326Z,6.68
2023-05-16T03:36:06.391Z,6.68
2023-05-16T03:37:06.468Z,6.36
2023-05-16T03:38:06.540Z,6.36
2023-05-16T03:39:06.630Z,6.23
2023-05-16T03:40:06.721Z,6.78
2023-05-16T03:41:06.885Z,7.06
2023-05-16T03:42:06.910Z,7.04
2023-05-16T03:43:06.967Z,7.47
2023-05-16T03:44:07.052Z,5.89
2023-05-16T03:45:07.117Z,6.16
2023-05-16T03:46:07.225Z,6.89
2023-05-16T03:47:07.289Z,7.31
2023-05-16T03:48:07.349Z,6.06
2023-05-16T03:49:07.304Z,7.23
2023-05-16T03:50:07.391Z,6.99
2023-05-16T03:51:07.408Z,6.31
2023-05-16T03:52:07.424Z,6.54
2023-05-16T03:53:07.456Z,7.27
2023-05-16T03:54:07.490Z,6.07
2023-05-16T03:55:07.526Z,6.78
2023-05-16T03:56:07.543Z,6.94
2023-05-16T03:57:07.593Z,6.63
2023-05-16T03:58:07.641Z,7.68
2023-05-16T03:59:07.649Z,7.38
2023-05-16T04:00:07.730Z,5.96
2023-05-16T04:01:07.721Z,7.49
2023-05-16T04:02:07.829Z,6.55
2023-05-16T04:03:07.824Z,7.71
2023-05-16T04:04:07.798Z,6.83
2023-05-16T04:05:07.855Z,8.09
2023-05-16T04:06:08.024Z,7.36
2023-05-16T04:07:07.888Z,7.90
2023-05-16T04:08:07.946Z,7.09
2023-05-16T04:09:07.984Z,7.61
2023-05-16T04:10:08.009Z,7.44
2023-05-16T04:11:08.054Z,7.27
2023-05-16T04:12:08.088Z,7.07
2023-05-16T04:13:08.146Z,8.41
2023-05-16T04:14:08.212Z,8.15
2023-05-16T04:15:08.286Z,7.56
2023-05-16T04:16:08.396Z,7.41
2023-05-16T04:17:08.564Z,7.47
2023-05-16T04:18:08.486Z,7.87
2023-05-16T04:19:08.557Z,7.14
2023-05-16T04:20:08.569Z,8.06
2023-05-16T04:21:08.638Z,7.63
2023-05-16T04:22:08.676Z,7.50
2023-05-16T04:23:08.718Z,7.45
2023-05-16T04:24:08.802Z,7.92
2023-05-16T04:25:08.854Z,8.51
2023-05-16T04:26:08.906Z,7.30
2023-05-16T04:28:13.864Z,11.32
2023-05-16T04:29:13.835Z,14.47
2023-05-16T04:30:13.837Z,11.35
2023-05-16T04:31:13.862Z,9.80
2023-05-16T04:32:13.821Z,8.31
2023-05-16T04:33:13.846Z,8.02
2023-05-16T04:34:13.785Z,8.50
2023-05-16T04:35:13.777Z,8.12
2023-05-16T04:36:13.780Z,8.02
2023-05-16T04:37:13.778Z,7.95
2023-05-16T04:38:13.758Z,8.07
2023-05-16T04:39:13.758Z,8.92
2023-05-16T04:40:13.761Z,8.36
2023-05-16T04:41:13.753Z,8.10
2023-05-16T04:42:13.827Z,7.16
2023-05-16T04:43:13.710Z,7.30
2023-05-16T04:44:13.658Z,8.57
2023-05-16T04:45:13.669Z,7.80
2023-05-16T04:46:13.697Z,8.47
2023-05-16T04:47:13.619Z,6.60
2023-05-16T04:48:13.605Z,7.77
2023-05-16T04:49:13.578Z,7.52
2023-05-16T04:50:13.581Z,7.51
2023-05-16T04:51:13.592Z,7.07
2023-05-16T04:52:13.532Z,7.40
2023-05-16T04:53:13.504Z,6.61
2023-05-16T04:54:13.476Z,6.74
2023-05-16T04:55:13.447Z,7.14
2023-05-16T04:56:13.421Z,7.16
2023-05-16T04:57:13.402Z,7.28
2023-05-16T04:58:13.364Z,6.92
2023-05-16T04:59:13.322Z,6.62
2023-05-16T05:00:13.291Z,7.21
2023-05-16T05:01:13.269Z,6.86
2023-05-16T05:02:13.305Z,7.01
2023-05-16T05:03:13.204Z,6.84
2023-05-16T05:04:13.130Z,7.14
2023-05-16T05:05:13.243Z,6.53
2023-05-16T05:06:13.068Z,5.90
2023-05-16T05:07:13.038Z,5.75
2023-05-16T05:08:13.007Z,5.93
2023-05-16T05:09:12.991Z,6.35
2023-05-16T05:10:12.994Z,6.73
2023-05-16T05:11:13.032Z,6.36
2023-05-16T05:12:13.011Z,6.20
2023-05-16T05:13:13.006Z,7.02
2023-05-16T05:14:13.011Z,6.03
2023-05-16T05:15:13.016Z,6.24
2023-05-16T05:16:13.052Z,5.70
2023-05-16T05:17:13.050Z,6.31
2023-05-16T05:18:13.081Z,6.31
2023-05-16T05:19:13.027Z,5.50
2023-05-16T05:20:13.007Z,6.64
2023-05-16T05:21:13.031Z,5.98
2023-05-16T05:22:13.020Z,6.05
2023-05-16T05:23:13.031Z,5.87
2023-05-16T05:24:13.059Z,5.46
2023-05-16T05:25:13.579Z,5.56
2023-05-16T05:26:13.083Z,6.74
2023-05-16T05:27:13.075Z,4.59
2023-05-16T05:28:13.115Z,5.37
2023-05-16T05:29:13.998Z,5.23
2023-05-16T05:30:13.090Z,6.95
2023-05-16T05:31:13.137Z,6.14
2023-05-16T05:32:13.092Z,6.23
2023-05-16T05:33:17.150Z,5.25
2023-05-16T05:34:13.056Z,5.86
2023-05-16T05:35:13.044Z,6.86
2023-05-16T05:36:12.991Z,7.06
2023-05-16T05:37:13.012Z,6.33
2023-05-16T05:38:12.924Z,6.11
2023-05-16T05:39:12.991Z,5.97
2023-05-16T05:40:12.849Z,5.69
2023-05-16T05:41:12.836Z,6.24
2023-05-16T05:42:13.589Z,5.65
2023-05-16T05:43:12.761Z,5.25
2023-05-16T05:44:13.586Z,5.04
2023-05-16T05:45:12.696Z,4.86
2023-05-16T05:46:12.739Z,4.81
2023-05-16T05:47:12.680Z,5.25
2023-05-16T05:48:12.774Z,5.57
2023-05-16T05:49:12.619Z,5.69
2023-05-16T05:50:12.583Z,5.99
2023-05-16T05:51:12.540Z,5.15
2023-05-16T05:52:12.516Z,5.50
2023-05-16T05:53:12.430Z,5.33
2023-05-16T05:54:12.373Z,5.90
2023-05-16T05:55:12.371Z,5.89
2023-05-16T05:56:12.386Z,5.32
2023-05-16T05:57:12.250Z,5.24
2023-05-16T05:58:12.244Z,5.62
2023-05-16T05:59:12.178Z,5.32
2023-05-16T06:00:13.104Z,5.72
2023-05-16T06:01:12.123Z,4.82
2023-05-16T06:02:12.680Z,5.49
2023-05-16T06:03:12.105Z,5.04
2023-05-16T06:04:12.186Z,4.56
2023-05-16T06:05:13.142Z,5.83
2023-05-16T06:06:12.160Z,5.40
2023-05-16T06:07:12.121Z,5.58
2023-05-16T06:08:12.141Z,4.91
2023-05-16T06:09:12.038Z,4.64
2023-05-16T06:10:12.163Z,5.13
2023-05-16T06:11:11.963Z,4.74
2023-05-16T06:12:12.989Z,4.97
2023-05-16T06:13:11.963Z,6.14
2023-05-16T06:14:11.899Z,5.04
2023-05-16T06:15:11.906Z,5.03
2023-05-16T06:16:11.823Z,5.25
2023-05-16T06:17:11.918Z,7.88
2023-05-16T06:18:11.886Z,7.50
2023-05-16T06:19:11.780Z,5.99
2023-05-16T06:20:11.702Z,4.87
2023-05-16T06:21:12.120Z,5.74
2023-05-16T06:22:11.643Z,6.67
2023-05-16T06:23:11.607Z,6.06
2023-05-16T06:24:11.535Z,4.80
2023-05-16T06:25:11.476Z,3.60
2023-05-16T06:26:11.919Z,4.09
2023-05-16T06:27:11.848Z,4.22
2023-05-16T06:28:11.383Z,3.48
2023-05-16T06:29:11.346Z,4.02
2023-05-16T06:30:11.361Z,3.84
2023-05-16T06:31:11.672Z,3.70
2023-05-16T06:32:13.353Z,3.77
2023-05-16T06:33:11.493Z,3.70
2023-05-16T06:34:11.406Z,3.33
2023-05-16T06:35:11.613Z,3.57
2023-05-16T06:36:11.489Z,3.44
2023-05-16T06:37:11.364Z,3.13
2023-05-16T06:38:11.264Z,3.66
2023-05-16T06:39:11.247Z,3.11
2023-05-16T06:40:11.271Z,3.21
2023-05-16T06:41:11.170Z,3.16
2023-05-16T06:42:11.383Z,3.25
2023-05-16T06:43:11.117Z,2.94
2023-05-16T06:44:11.357Z,2.79
2023-05-16T06:45:11.646Z,3.06
2023-05-16T06:46:11.076Z,3.15
2023-05-16T06:47:11.026Z,3.17
2023-05-16T06:48:11.109Z,3.19
2023-05-16T06:49:11.124Z,2.82
2023-05-16T06:50:11.041Z,2.51
2023-05-16T06:51:11.624Z,2.44
2023-05-16T06:52:11.624Z,2.70
2023-05-16T06:53:10.996Z,2.69
2023-05-16T06:54:11.021Z,2.56
2023-05-16T06:55:11.654Z,2.81
2023-05-16T06:56:11.031Z,2.42
2023-05-16T06:57:11.017Z,2.37
2023-05-16T06:58:11.588Z,2.88
2023-05-16T06:59:12.036Z,2.62
2023-05-16T07:00:11.035Z,2.73
2023-05-16T07:01:10.972Z,2.60
2023-05-16T07:02:10.956Z,2.61
2023-05-16T07:03:11.010Z,2.41
2023-05-16T07:04:10.998Z,2.41
2023-05-16T07:05:11.046Z,2.58
2023-05-16T07:06:10.883Z,2.24
2023-05-16T07:07:10.858Z,1.84
2023-05-16T07:08:10.827Z,2.14
2023-05-16T07:09:10.824Z,2.19
2023-05-16T07:10:10.791Z,2.22
2023-05-16T07:11:10.762Z,2.20
2023-05-16T07:12:10.787Z,2.32
2023-05-16T07:13:10.800Z,2.01
2023-05-16T07:14:10.791Z,1.63
2023-05-16T07:15:10.714Z,2.21
2023-05-16T07:16:10.766Z,4.61
2023-05-16T07:17:10.796Z,2.12
2023-05-16T07:18:10.734Z,1.63
2023-05-16T07:19:10.790Z,9.68
2023-05-16T07:20:10.619Z,4.79
2023-05-16T07:21:10.643Z,3.66
2023-05-16T07:22:10.573Z,3.14
2023-05-16T07:23:10.542Z,2.06
2023-05-16T07:24:10.545Z,2.17
2023-05-16T07:25:10.576Z,1.73
2023-05-16T07:26:10.607Z,1.81
2023-05-16T07:27:10.606Z,1.56
2023-05-16T07:28:10.568Z,1.66
2023-05-16T07:29:10.540Z,5.82
2023-05-16T07:30:10.564Z,1.88
2023-05-16T07:31:10.631Z,2.25
2023-05-16T07:32:10.722Z,2.17
2023-05-16T07:33:12.149Z,1.92
2023-05-16T07:34:10.538Z,3.21
2023-05-16T07:35:10.536Z,2.09
2023-05-16T07:36:16.928Z,2.18
2023-05-16T07:37:11.689Z,2.28
2023-05-16T07:38:10.430Z,2.65
2023-05-16T07:39:10.413Z,2.19
2023-05-16T07:40:10.347Z,2.91
2023-05-16T07:41:10.298Z,1.78
2023-05-16T07:42:10.220Z,2.09
2023-05-16T07:43:10.251Z,2.01
2023-05-16T07:44:10.280Z,1.70
2023-05-16T07:45:10.080Z,2.18
2023-05-16T07:46:10.254Z,2.09
2023-05-16T07:47:10.721Z,2.05
2023-05-16T07:48:10.656Z,2.81
2023-05-16T07:49:09.967Z,2.46
2023-05-16T07:50:09.953Z,1.66
2023-05-16T07:51:09.794Z,2.00
2023-05-16T07:52:09.752Z,2.02
2023-05-16T07:53:09.710Z,1.91
2023-05-16T07:54:09.684Z,1.90
2023-05-16T07:55:09.669Z,2.20
2023-05-16T07:56:09.810Z,2.44
2023-05-16T07:57:09.794Z,2.41
2023-05-16T07:58:09.540Z,2.06
2023-05-16T07:59:09.589Z,2.05
2023-05-16T08:00:09.525Z,1.86
2023-05-16T08:01:09.482Z,1.73
2023-05-16T08:02:09.468Z,2.15
2023-05-16T08:03:09.506Z,1.67
2023-05-16T08:04:09.418Z,2.04
2023-05-16T08:05:09.472Z,1.64
2023-05-16T08:06:09.611Z,1.83
2023-05-16T08:07:10.233Z,2.02
2023-05-16T08:08:09.441Z,1.82
2023-05-16T08:09:09.484Z,1.78
2023-05-16T08:10:11.792Z,1.58
2023-05-16T08:11:09.350Z,1.87
2023-05-16T08:12:09.316Z,1.86
2023-05-16T08:13:10.236Z,2.15
2023-05-16T08:14:09.233Z,2.26
2023-05-16T08:15:12.162Z,1.71
2023-05-16T08:16:09.330Z,1.65
2023-05-16T08:17:09.037Z,2.22
2023-05-16T08:18:09.032Z,2.53
2023-05-16T08:19:08.932Z,2.39
2023-05-16T08:20:08.884Z,1.89
2023-05-16T08:21:09.978Z,2.05
2023-05-16T08:22:08.812Z,2.09
2023-05-16T08:23:08.791Z,2.39
2023-05-16T08:24:08.750Z,2.05
2023-05-16T08:25:08.665Z,1.91
2023-05-16T08:26:08.710Z,1.85
2023-05-16T08:27:08.525Z,1.92
2023-05-16T08:28:08.526Z,2.09
2023-05-16T08:29:08.487Z,2.23
2023-05-16T08:30:08.422Z,2.04
2023-05-16T08:31:08.401Z,2.11
2023-05-16T08:32:08.601Z,1.88
2023-05-16T08:33:08.478Z,2.15
2023-05-16T08:34:09.039Z,2.16
2023-05-16T08:35:08.267Z,2.14
2023-05-16T08:36:08.358Z,2.20
2023-05-16T08:37:08.278Z,2.59
2023-05-16T08:38:08.269Z,2.14
2023-05-16T08:39:08.369Z,2.20
2023-05-16T08:40:09.166Z,2.36
2023-05-16T08:41:09.180Z,2.19
2023-05-16T08:42:08.271Z,2.38
2023-05-16T08:43:09.103Z,2.21
2023-05-16T08:44:08.311Z,2.16
2023-05-16T08:45:08.270Z,2.17
2023-05-16T08:46:08.637Z,2.07
2023-05-16T08:47:08.238Z,1.92
2023-05-16T08:48:10.438Z,2.17
2023-05-16T08:49:08.227Z,1.69
2023-05-16T08:50:08.278Z,2.85
2023-05-16T08:51:08.052Z,1.96
2023-05-16T08:52:08.054Z,2.16
2023-05-16T08:53:07.930Z,2.34
2023-05-16T08:54:07.869Z,2.01
2023-05-16T08:55:11.432Z,2.11
2023-05-16T08:56:09.504Z,2.60
2023-05-16T08:57:07.687Z,1.87
2023-05-16T08:58:07.692Z,2.04
2023-05-16T08:59:07.894Z,1.63
2023-05-16T09:00:07.536Z,2.19
2023-05-16T09:01:07.589Z,1.89
2023-05-16T09:02:07.529Z,2.61
2023-05-16T09:03:09.005Z,1.76
2023-05-16T09:04:07.377Z,1.72
2023-05-16T09:05:07.386Z,2.13
2023-05-16T09:06:08.216Z,2.02
2023-05-16T09:07:07.164Z,2.37
2023-05-16T09:08:07.104Z,1.82
2023-05-16T09:09:07.032Z,1.72
2023-05-16T09:10:07.115Z,2.18
2023-05-16T09:11:06.894Z,1.70
2023-05-16T09:12:07.672Z,1.59
2023-05-16T09:13:06.794Z,1.73
2023-05-16T09:14:10.574Z,1.85
2023-05-16T09:15:06.665Z,1.83
2023-05-16T09:16:06.600Z,2.30
2023-05-16T09:17:06.581Z,1.81
2023-05-16T09:18:07.208Z,2.18
2023-05-16T09:19:06.408Z,2.14
2023-05-16T09:20:06.315Z,1.86
2023-05-16T09:21:06.648Z,2.37
2023-05-16T09:22:06.196Z,1.91
2023-05-16T09:23:06.169Z,1.82
2023-05-16T09:24:06.650Z,1.95
2023-05-16T09:25:08.562Z,2.60
2023-05-16T09:26:07.038Z,1.86
2023-05-16T09:27:05.906Z,2.15
2023-05-16T09:28:05.853Z,2.23
2023-05-16T09:29:05.875Z,1.99
2023-05-16T09:30:05.785Z,2.52
2023-05-16T09:31:05.832Z,2.39
2023-05-16T09:32:05.675Z,2.71
2023-05-16T09:33:05.694Z,2.69
2023-05-16T09:34:05.646Z,2.54
2023-05-16T09:35:05.529Z,2.23
2023-05-16T09:36:06.154Z,2.50
2023-05-16T09:37:05.461Z,2.36
2023-05-16T09:38:05.424Z,2.64
2023-05-16T09:39:05.437Z,2.83
2023-05-16T09:40:05.354Z,2.64
2023-05-16T09:41:05.327Z,2.86
2023-05-16T09:42:05.496Z,3.02
2023-05-16T09:43:05.223Z,2.67
2023-05-16T09:44:08.377Z,2.89
2023-05-16T09:45:05.481Z,3.20
2023-05-16T09:46:05.126Z,3.17
2023-05-16T09:47:05.012Z,2.75
2023-05-16T09:48:05.030Z,2.86
2023-05-16T09:49:04.905Z,2.67
2023-05-16T09:50:04.877Z,2.76
2023-05-16T09:51:04.853Z,2.53
2023-05-16T09:52:04.838Z,2.77
2023-05-16T09:53:04.769Z,2.70
2023-05-16T09:54:04.749Z,3.88
2023-05-16T09:55:04.667Z,5.41
2023-05-16T09:56:04.631Z,2.99
2023-05-16T09:57:04.581Z,3.34
2023-05-16T09:58:04.561Z,2.88
2023-05-16T09:59:04.493Z,2.73
2023-05-16T10:00:04.456Z,2.76
2023-05-16T10:01:04.423Z,3.30
2023-05-16T10:02:04.454Z,2.68
2023-05-16T10:03:06.114Z,12.99
2023-05-16T10:04:04.369Z,5.18
2023-05-16T10:05:05.149Z,3.72
2023-05-16T10:06:04.215Z,4.78
2023-05-16T10:07:04.155Z,5.65
2023-05-16T10:08:04.148Z,5.12
2023-05-16T10:09:04.115Z,3.55
2023-05-16T10:10:04.632Z,3.68
2023-05-16T10:11:04.094Z,4.60
2023-05-16T10:12:04.049Z,6.62
2023-05-16T10:13:04.061Z,3.77
2023-05-16T10:14:06.004Z,4.12
2023-05-16T10:15:03.975Z,3.86
2023-05-16T10:16:03.982Z,4.50
2023-05-16T10:17:06.155Z,5.19
2023-05-16T10:18:03.872Z,5.20
2023-05-16T10:19:03.737Z,3.84
2023-05-16T10:20:04.641Z,3.28
2023-05-16T10:21:05.142Z,3.46
2023-05-16T10:22:03.696Z,5.17
2023-05-16T10:23:04.680Z,3.77
2023-05-16T10:24:04.682Z,4.85
2023-05-16T10:25:03.716Z,4.29
2023-05-16T10:26:03.693Z,3.66
2023-05-16T10:27:03.729Z,4.12
2023-05-16T10:28:04.663Z,4.87
2023-05-16T10:29:03.703Z,3.82
2023-05-16T10:30:03.719Z,4.60
2023-05-16T10:31:03.954Z,6.90
2023-05-16T10:32:03.727Z,5.95
2023-05-16T10:33:04.171Z,6.42
2023-05-16T10:34:04.164Z,5.66
2023-05-16T10:35:03.575Z,5.53
2023-05-16T10:36:03.490Z,5.48
2023-05-16T10:37:03.454Z,5.04
2023-05-16T10:38:04.131Z,5.50
2023-05-16T10:39:03.391Z,3.43
2023-05-16T10:40:03.267Z,5.58
2023-05-16T10:41:03.352Z,4.33
2023-05-16T10:42:03.297Z,4.51
2023-05-16T10:43:03.177Z,6.62
2023-05-16T10:44:03.077Z,3.74
2023-05-16T10:46:03.034Z,4.41
2023-05-16T10:47:02.969Z,4.13
2023-05-16T10:48:03.041Z,3.55
2023-05-16T10:49:02.964Z,3.86
2023-05-16T10:50:03.065Z,5.11
2023-05-16T10:51:03.158Z,4.38
2023-05-16T10:52:02.971Z,4.33
2023-05-16T10:53:03.096Z,3.84
2023-05-16T10:54:02.953Z,4.33
2023-05-16T10:55:02.975Z,3.72
2023-05-16T10:56:02.933Z,3.74
2023-05-16T10:57:02.853Z,5.73
2023-05-16T10:58:02.892Z,6.11
2023-05-16T10:59:02.785Z,6.13
2023-05-16T11:00:03.754Z,4.42
2023-05-16T11:01:02.740Z,3.63
2023-05-16T11:02:02.697Z,3.76
2023-05-16T11:03:02.584Z,3.77
2023-05-16T11:04:02.806Z,3.60
2023-05-16T11:05:02.437Z,7.09
2023-05-16T11:06:02.363Z,3.77
2023-05-16T11:07:02.373Z,3.28
2023-05-16T11:08:02.287Z,2.68
2023-05-16T11:09:02.239Z,3.58
2023-05-16T11:10:02.192Z,3.08
2023-05-16T11:11:02.147Z,2.86
2023-05-16T11:12:02.054Z,3.63
2023-05-16T11:13:02.017Z,3.26
2023-05-16T11:14:01.938Z,3.24
2023-05-16T11:15:02.666Z,3.82
2023-05-16T11:16:02.692Z,3.63
2023-05-16T11:17:01.851Z,4.04
2023-05-16T11:18:01.757Z,5.44
2023-05-16T11:19:02.190Z,4.54
2023-05-16T11:20:01.596Z,5.02
2023-05-16T11:21:01.558Z,5.07
2023-05-16T11:22:01.521Z,4.46
2023-05-16T11:23:01.495Z,4.13
2023-05-16T11:24:01.436Z,4.50
2023-05-16T11:25:01.389Z,5.19
2023-05-16T11:26:01.362Z,5.06
2023-05-16T11:27:01.663Z,7.02
2023-05-16T11:28:02.271Z,4.44
2023-05-16T11:29:01.186Z,7.26
2023-05-16T11:30:03.786Z,5.69
2023-05-16T11:31:01.234Z,4.25
2023-05-16T11:32:01.060Z,4.26
2023-05-16T11:33:01.139Z,4.01
2023-05-16T11:34:00.992Z,4.02
2023-05-16T11:35:01.048Z,3.91
2023-05-16T11:36:13.993Z,4.35
2023-05-16T11:37:01.829Z,3.88
2023-05-16T11:38:00.855Z,4.29
2023-05-16T11:39:00.710Z,3.86
2023-05-16T11:40:00.879Z,4.37
2023-05-16T11:41:00.592Z,4.21
2023-05-16T11:42:00.563Z,4.56
2023-05-16T11:43:00.490Z,3.63
2023-05-16T11:44:00.566Z,4.07
2023-05-16T11:45:00.432Z,3.75
2023-05-16T11:46:00.401Z,4.40
2023-05-16T11:47:00.440Z,4.51
2023-05-16T11:48:00.284Z,3.51
2023-05-16T11:49:00.144Z,4.32
2023-05-16T11:50:00.203Z,4.06
2023-05-16T11:51:00.752Z,4.07
2023-05-16T11:52:00.729Z,4.19
2023-05-16T11:53:02.073Z,3.48
2023-05-16T11:53:59.995Z,3.78
2023-05-16T11:55:00.181Z,4.01
2023-05-16T11:55:59.928Z,4.11
2023-05-16T11:56:59.992Z,3.59
2023-05-16T11:57:59.923Z,4.19
2023-05-16T11:59:00.118Z,3.68
2023-05-16T11:59:59.910Z,3.72
2023-05-16T12:00:59.847Z,4.02
2023-05-16T12:01:59.939Z,4.47
2023-05-16T12:03:00.014Z,4.12
2023-05-16T12:03:59.795Z,5.14
2023-05-16T12:04:59.821Z,5.59
2023-05-16T12:05:59.632Z,3.64
2023-05-16T12:06:59.613Z,3.82
2023-05-16T12:07:59.568Z,4.24
2023-05-16T12:08:59.551Z,4.57
2023-05-16T12:10:00.268Z,3.76
2023-05-16T12:10:59.418Z,3.90
2023-05-16T12:11:59.456Z,4.42
2023-05-16T12:12:59.359Z,4.74
2023-05-16T12:13:59.329Z,5.08
2023-05-16T12:14:59.290Z,4.86
2023-05-16T12:15:59.472Z,4.48
2023-05-16T12:16:59.456Z,5.60
2023-05-16T12:17:59.284Z,5.12
2023-05-16T12:18:59.178Z,4.53
2023-05-16T12:20:02.204Z,4.14
2023-05-16T12:20:59.127Z,4.44
2023-05-16T12:21:59.064Z,5.14
2023-05-16T12:22:59.078Z,4.68
2023-05-16T12:23:58.868Z,4.30
2023-05-16T12:24:59.677Z,4.03
2023-05-16T12:25:58.696Z,4.47
2023-05-16T12:26:58.661Z,5.24
2023-05-16T12:27:58.564Z,4.95
2023-05-16T12:28:58.715Z,4.43
2023-05-16T12:29:58.429Z,5.10
2023-05-16T12:30:58.333Z,4.55
2023-05-16T12:31:58.919Z,5.54
2023-05-16T12:32:58.577Z,6.23
2023-05-16T12:33:58.100Z,5.86
2023-05-16T12:34:58.030Z,4.84
2023-05-16T12:35:57.966Z,5.51
2023-05-16T12:36:57.897Z,4.59
2023-05-16T12:37:57.848Z,6.06
2023-05-16T12:38:57.755Z,5.25
2023-05-16T12:39:57.694Z,5.27
2023-05-16T12:40:57.612Z,5.02
2023-05-16T12:41:57.561Z,4.62
2023-05-16T12:42:57.540Z,4.91
2023-05-16T12:43:57.427Z,4.73
2023-05-16T12:44:57.627Z,5.46
2023-05-16T12:45:57.398Z,4.91
2023-05-16T12:46:57.276Z,5.38
2023-05-16T12:47:57.230Z,4.96
2023-05-16T12:48:57.133Z,4.52
2023-05-16T12:49:57.035Z,4.33
2023-05-16T12:50:56.958Z,4.00
2023-05-16T12:51:56.890Z,4.45
2023-05-16T12:52:56.838Z,3.81
2023-05-16T12:54:09.343Z,3.72
2023-05-16T12:54:57.764Z,4.26
2023-05-16T12:55:56.658Z,4.12
2023-05-16T12:56:57.173Z,4.11
2023-05-16T12:57:56.597Z,3.87
2023-05-16T12:58:56.541Z,4.13
2023-05-16T12:59:56.454Z,4.31
2023-05-16T13:00:56.901Z,3.54
2023-05-16T13:01:56.352Z,3.74
2023-05-16T13:02:57.204Z,4.66
2023-05-16T13:03:56.295Z,3.93
2023-05-16T13:04:56.259Z,4.11
2023-05-16T13:05:56.060Z,3.28
2023-05-16T13:06:59.628Z,3.59
2023-05-16T13:07:56.059Z,2.98
2023-05-16T13:08:55.778Z,3.46
2023-05-16T13:09:55.729Z,3.02
2023-05-16T13:10:55.595Z,3.53
2023-05-16T13:11:55.556Z,3.48
2023-05-16T13:12:55.427Z,3.61
2023-05-16T13:13:55.329Z,3.72
2023-05-16T13:14:55.258Z,4.02
2023-05-16T13:15:55.191Z,3.61
2023-05-16T13:16:55.091Z,3.91
2023-05-16T13:17:55.044Z,4.03
2023-05-16T13:18:54.975Z,3.96
2023-05-16T13:19:54.983Z,4.25
2023-05-16T13:20:54.709Z,5.09
2023-05-16T13:21:54.619Z,3.50